createdAt,value
2022-12-11T00:01:12.058Z,22.40
2022-12-11T00:03:42.781Z,20.50
2022-12-11T00:06:14.056Z,23.60
2022-12-11T00:11:13.035Z,25.80
2022-12-11T00:13:41.782Z,21.40
2022-12-11T00:16:10.824Z,22.80
2022-12-11T00:18:39.353Z,21.40
2022-12-11T00:21:11.370Z,21.20
2022-12-11T00:23:39.618Z,23.80
2022-12-11T00:26:10.267Z,22.40
2022-12-11T00:28:38.574Z,18.00
2022-12-11T00:31:08.772Z,21.60
2022-12-11T00:33:37.220Z,21.90
2022-12-11T00:36:11.650Z,23.40
2022-12-11T00:38:39.934Z,21.00
2022-12-11T00:41:08.238Z,19.80
2022-12-11T00:43:36.473Z,20.40
2022-12-11T00:46:04.754Z,20.20
2022-12-11T00:48:33.135Z,18.90
2022-12-11T00:51:01.263Z,19.70
2022-12-11T00:53:29.658Z,20.20
2022-12-11T00:55:57.957Z,21.90
2022-12-11T00:58:26.174Z,23.10
2022-12-11T01:00:54.667Z,24.30
2022-12-11T01:03:22.967Z,23.20
2022-12-11T01:05:53.193Z,20.50
2022-12-11T01:08:22.017Z,21.60
2022-12-11T01:10:51.159Z,21.40
2022-12-11T01:13:19.312Z,21.40
2022-12-11T01:15:47.527Z,21.20
2022-12-11T01:18:16.044Z,21.20
2022-12-11T01:20:44.159Z,20.20
2022-12-11T01:23:13.493Z,19.30
2022-12-11T01:25:42.527Z,19.00
2022-12-11T01:28:10.963Z,22.30
2022-12-11T01:30:42.081Z,20.60
2022-12-11T01:33:10.921Z,22.20
2022-12-11T01:35:40.415Z,22.00
2022-12-11T01:38:10.494Z,22.20
2022-12-11T01:40:38.719Z,21.30
2022-12-11T01:43:11.660Z,20.90
2022-12-11T01:45:44.743Z,18.80
2022-12-11T01:48:19.233Z,18.90
2022-12-11T01:50:49.826Z,16.40
2022-12-11T01:53:32.548Z,18.20
2022-12-11T01:56:01.231Z,18.80
2022-12-11T01:58:43.987Z,18.20
2022-12-11T02:05:40.530Z,19.80
2022-12-11T02:08:10.857Z,19.60
2022-12-11T02:10:54.355Z,18.90
2022-12-11T02:13:33.400Z,18.90
2022-12-11T02:16:19.485Z,17.50
2022-12-11T02:19:06.874Z,15.80
2022-12-11T02:21:41.327Z,16.80
2022-12-11T02:24:18.685Z,18.50
2022-12-11T02:27:31.805Z,16.80
2022-12-11T02:30:07.108Z,14.80
2022-12-11T02:32:59.098Z,15.60
2022-12-11T02:35:41.281Z,17.70
2022-12-11T02:38:24.108Z,17.20
2022-12-11T02:40:55.579Z,16.10
2022-12-11T02:43:25.527Z,18.90
2022-12-11T02:45:54.475Z,16.20
2022-12-11T02:48:24.385Z,15.00
2022-12-11T02:50:58.217Z,18.10
2022-12-11T02:53:29.353Z,17.00
2022-12-11T02:56:13.147Z,16.00
2022-12-11T02:58:49.934Z,19.30
2022-12-11T03:01:19.957Z,18.30
2022-12-11T03:03:48.356Z,16.20
2022-12-11T03:06:21.529Z,17.40
2022-12-11T03:08:51.953Z,16.10
2022-12-11T03:11:20.034Z,19.20
2022-12-11T03:13:48.300Z,18.80
2022-12-11T03:16:30.560Z,17.00
2022-12-11T03:19:12.775Z,18.10
2022-12-11T03:21:48.878Z,16.40
2022-12-11T03:24:30.364Z,17.80
2022-12-11T03:27:06.794Z,18.60
2022-12-11T03:29:41.238Z,17.20
2022-12-11T03:32:23.114Z,16.80
2022-12-11T03:34:58.552Z,18.50
2022-12-11T03:37:31.256Z,17.90
2022-12-11T03:40:06.701Z,17.30
2022-12-11T03:42:36.769Z,17.80
2022-12-11T03:45:06.651Z,18.90
2022-12-11T03:47:35.398Z,15.80
2022-12-11T03:50:07.488Z,16.90
2022-12-11T03:52:44.006Z,16.70
2022-12-11T03:55:16.947Z,17.10
2022-12-11T03:57:45.513Z,15.00
2022-12-11T04:00:16.797Z,16.30
2022-12-11T04:03:09.695Z,17.40
2022-12-11T04:05:49.583Z,18.40
2022-12-11T04:08:20.739Z,18.30
2022-12-11T04:13:38.574Z,19.70
2022-12-11T04:16:07.479Z,19.30
2022-12-11T04:18:54.438Z,18.90
2022-12-11T04:21:41.132Z,20.20
2022-12-11T04:24:15.460Z,21.30
2022-12-11T04:26:47.511Z,20.40
2022-12-11T04:29:15.618Z,20.30
2022-12-11T04:31:43.683Z,21.00
2022-12-11T04:34:12.098Z,21.80
2022-12-11T04:36:40.165Z,17.10
2022-12-11T04:39:08.211Z,18.50
2022-12-11T04:41:37.238Z,16.70
2022-12-11T04:44:05.831Z,17.30
2022-12-11T04:46:34.489Z,19.60
2022-12-11T04:49:02.748Z,17.70
2022-12-11T04:51:30.869Z,20.10
2022-12-11T04:53:59.616Z,19.10
2022-12-11T04:56:27.981Z,16.20
2022-12-11T04:58:56.062Z,23.40
2022-12-11T05:01:24.255Z,19.10
2022-12-11T05:03:52.422Z,19.40
2022-12-11T05:06:20.479Z,20.00
2022-12-11T05:08:48.571Z,19.80
2022-12-11T05:11:17.549Z,19.00
2022-12-11T05:13:45.986Z,19.50
2022-12-11T05:16:16.322Z,16.60
2022-12-11T05:18:44.600Z,18.40
2022-12-11T05:21:14.296Z,17.80
2022-12-11T05:23:42.811Z,20.00
2022-12-11T05:26:17.284Z,21.50
2022-12-11T05:28:46.474Z,20.50
2022-12-11T05:31:18.226Z,19.50
2022-12-11T05:33:47.507Z,19.90
2022-12-11T05:36:27.657Z,20.40
2022-12-11T05:38:56.168Z,19.40
2022-12-11T05:41:26.222Z,18.10
2022-12-11T05:43:54.292Z,18.40
2022-12-11T05:46:27.791Z,18.60
2022-12-11T05:49:01.062Z,19.30
2022-12-11T05:51:30.472Z,21.10
2022-12-11T05:53:58.702Z,21.80
2022-12-11T05:56:29.838Z,18.60
2022-12-11T06:01:32.255Z,14.50
2022-12-11T06:04:01.179Z,16.30
2022-12-11T06:06:29.438Z,18.10
2022-12-11T06:08:59.034Z,17.50
2022-12-11T06:11:29.289Z,18.80
2022-12-11T06:13:57.748Z,20.40
2022-12-11T06:16:25.897Z,17.50
2022-12-11T06:18:58.010Z,18.50
2022-12-11T06:21:30.039Z,23.20
2022-12-11T06:24:00.768Z,22.10
2022-12-11T06:26:29.805Z,21.60
2022-12-11T06:28:57.916Z,20.50
2022-12-11T06:31:26.494Z,21.50
2022-12-11T06:33:54.726Z,18.40
2022-12-11T06:36:24.532Z,16.70
2022-12-11T06:38:53.069Z,15.90
2022-12-11T06:41:21.349Z,16.80
2022-12-11T06:43:50.748Z,18.50
2022-12-11T06:46:20.184Z,19.20
2022-12-11T06:48:49.463Z,18.30
2022-12-11T06:51:20.004Z,17.60
2022-12-11T06:53:56.522Z,18.30
2022-12-11T06:56:24.929Z,18.30
2022-12-11T06:58:53.153Z,17.40
2022-12-11T07:01:24.620Z,18.30
2022-12-11T07:04:00.030Z,19.40
2022-12-11T07:06:30.095Z,19.30
2022-12-11T07:08:58.291Z,19.60
2022-12-11T07:11:26.383Z,18.50
2022-12-11T07:13:54.638Z,18.90
2022-12-11T07:16:23.245Z,20.10
2022-12-11T07:18:52.067Z,20.20
2022-12-11T07:21:21.164Z,20.60
2022-12-11T07:23:50.223Z,19.70
2022-12-11T07:26:21.022Z,18.50
2022-12-11T07:28:49.483Z,19.60
2022-12-11T07:31:25.029Z,20.50
2022-12-11T07:33:58.573Z,20.00
2022-12-11T07:36:28.014Z,20.20
2022-12-11T07:38:56.733Z,18.70
2022-12-11T07:41:25.145Z,20.90
2022-12-11T07:43:57.291Z,21.30
2022-12-11T07:46:28.243Z,18.50
2022-12-11T07:48:56.425Z,19.10
2022-12-11T07:51:28.120Z,17.60
2022-12-11T07:54:01.591Z,16.40
2022-12-11T07:56:30.736Z,16.70
2022-12-11T07:59:04.967Z,17.20
2022-12-11T08:01:36.556Z,18.60
2022-12-11T08:04:07.360Z,18.80
2022-12-11T08:06:37.806Z,18.70
2022-12-11T08:09:09.695Z,18.70
2022-12-11T08:11:38.419Z,18.20
2022-12-11T08:14:07.977Z,18.90
2022-12-11T08:16:36.661Z,18.50
2022-12-11T08:19:04.776Z,18.30
2022-12-11T08:21:32.849Z,16.80
2022-12-11T08:24:00.968Z,18.90
2022-12-11T08:26:31.695Z,19.60
2022-12-11T08:29:02.200Z,20.50
2022-12-11T08:31:30.844Z,23.10
2022-12-11T08:33:59.071Z,24.40
2022-12-11T08:36:27.613Z,20.60
2022-12-11T08:38:56.979Z,19.60
2022-12-11T08:41:30.326Z,20.60
2022-12-11T08:44:00.392Z,22.80
2022-12-11T08:46:31.452Z,20.50
2022-12-11T08:49:00.138Z,27.10
2022-12-11T08:51:29.746Z,21.20
2022-12-11T08:54:01.223Z,18.30
2022-12-11T08:56:30.202Z,18.50
2022-12-11T08:59:01.892Z,17.40
2022-12-11T09:01:30.589Z,17.10
2022-12-11T09:03:59.306Z,16.60
2022-12-11T09:06:30.025Z,16.50
2022-12-11T09:09:00.961Z,18.10
2022-12-11T09:11:32.907Z,15.60
2022-12-11T09:14:07.181Z,17.00
2022-12-11T09:16:40.214Z,14.00
2022-12-11T09:19:13.918Z,15.70
2022-12-11T09:21:43.720Z,15.50
2022-12-11T09:24:13.792Z,13.60
2022-12-11T09:26:42.332Z,15.30
2022-12-11T09:29:11.880Z,12.90
2022-12-11T09:31:41.004Z,12.90
2022-12-11T09:34:12.370Z,12.10
2022-12-11T09:36:41.736Z,12.50
2022-12-11T09:39:11.899Z,12.50
2022-12-11T09:41:58.287Z,13.00
2022-12-11T09:44:41.581Z,13.70
2022-12-11T09:47:57.371Z,14.50
2022-12-11T09:50:29.272Z,14.10
2022-12-11T09:53:20.806Z,12.70
2022-12-11T09:56:07.176Z,15.10
2022-12-11T09:59:01.807Z,19.90
2022-12-11T10:01:36.106Z,13.90
2022-12-11T10:04:36.917Z,15.30
2022-12-11T10:07:20.790Z,13.30
2022-12-11T10:10:17.082Z,12.90
2022-12-11T10:12:58.651Z,11.30
2022-12-11T10:15:37.731Z,12.80
2022-12-11T10:18:12.774Z,13.70
2022-12-11T10:20:42.891Z,13.80
2022-12-11T10:23:21.199Z,11.90
2022-12-11T10:25:58.721Z,12.70
2022-12-11T10:28:28.120Z,15.20
2022-12-11T10:31:11.669Z,13.80
2022-12-11T10:34:18.238Z,13.20
2022-12-11T10:36:46.525Z,14.10
2022-12-11T10:39:20.843Z,12.50
2022-12-11T10:41:54.825Z,10.20
2022-12-11T10:44:29.402Z,11.60
2022-12-11T10:47:19.127Z,12.40
2022-12-11T10:50:02.145Z,10.80
2022-12-11T10:52:45.095Z,12.50
2022-12-11T10:55:27.463Z,11.70
2022-12-11T10:58:01.911Z,21.50
2022-12-11T11:00:39.721Z,20.90
2022-12-11T11:03:25.833Z,15.50
2022-12-11T11:06:18.342Z,14.90
2022-12-11T11:08:51.993Z,12.60
2022-12-11T11:11:36.765Z,16.10
2022-12-11T11:14:10.993Z,14.50
2022-12-11T11:16:41.620Z,19.80
2022-12-11T11:19:17.926Z,16.70
2022-12-11T11:21:53.595Z,14.20
2022-12-11T11:24:27.794Z,18.70
2022-12-11T11:27:13.343Z,13.40
2022-12-11T11:29:43.324Z,12.90
2022-12-11T11:32:20.550Z,12.90
2022-12-11T11:34:48.730Z,13.20
2022-12-11T11:37:27.389Z,13.90
2022-12-11T11:40:03.415Z,14.70
2022-12-11T11:42:51.443Z,15.00
2022-12-11T11:45:33.470Z,12.40
2022-12-11T11:48:24.685Z,15.40
2022-12-11T11:50:54.229Z,12.70
2022-12-11T11:53:37.405Z,13.40
2022-12-11T11:56:18.514Z,12.40
2022-12-11T12:01:17.881Z,12.70
2022-12-11T12:03:48.112Z,13.40
2022-12-11T12:06:28.347Z,15.60
2022-12-11T12:09:09.245Z,14.30
2022-12-11T12:12:08.882Z,14.20
2022-12-11T12:14:52.888Z,17.30
2022-12-11T12:17:38.600Z,15.20
2022-12-11T12:20:10.685Z,14.90
2022-12-11T12:22:53.794Z,17.30
2022-12-11T12:25:49.206Z,14.70
2022-12-11T12:28:41.879Z,11.60
2022-12-11T12:31:44.274Z,10.50
2022-12-11T12:34:35.649Z,11.90
2022-12-11T12:37:38.134Z,12.20
2022-12-11T12:40:28.959Z,10.50
2022-12-11T12:42:57.158Z,10.80
2022-12-11T12:45:30.600Z,10.60
2022-12-11T12:47:58.903Z,13.00
2022-12-11T12:50:34.924Z,12.00
2022-12-11T12:53:06.483Z,12.30
2022-12-11T12:55:35.885Z,12.60
2022-12-11T12:58:06.511Z,13.20
2022-12-11T13:00:40.313Z,15.10
2022-12-11T13:03:14.974Z,22.10
2022-12-11T13:05:55.031Z,20.30
2022-12-11T13:08:43.755Z,20.20
2022-12-11T13:11:14.105Z,17.80
2022-12-11T13:13:51.608Z,15.00
2022-12-11T13:16:38.064Z,13.90
2022-12-11T13:19:27.814Z,19.00
2022-12-11T13:21:58.005Z,16.60
2022-12-11T13:24:28.480Z,14.30
2022-12-11T13:26:56.890Z,13.50
2022-12-11T13:29:42.699Z,15.30
2022-12-11T13:32:11.086Z,12.60
2022-12-11T13:34:42.856Z,11.80
2022-12-11T13:37:41.821Z,13.30
2022-12-11T13:40:24.406Z,14.70
2022-12-11T13:42:59.194Z,22.90
2022-12-11T13:45:30.610Z,17.60
2022-12-11T13:47:59.701Z,14.80
2022-12-11T13:50:35.197Z,14.30
2022-12-11T13:53:05.000Z,17.90
2022-12-11T13:55:34.926Z,16.10
2022-12-11T13:58:05.563Z,15.60
2022-12-11T14:00:34.052Z,18.40
2022-12-11T14:03:07.641Z,16.70
2022-12-11T14:05:36.615Z,15.60
2022-12-11T14:08:12.058Z,15.30
2022-12-11T14:10:40.527Z,18.90
2022-12-11T14:13:24.068Z,15.50
2022-12-11T14:15:53.598Z,15.20
2022-12-11T14:18:24.823Z,16.00
2022-12-11T14:21:02.150Z,15.00
2022-12-11T14:23:33.545Z,21.10
2022-12-11T14:26:17.833Z,17.10
2022-12-11T14:28:46.085Z,14.00
2022-12-11T14:31:17.583Z,14.60
2022-12-11T14:33:52.012Z,18.30
2022-12-11T14:36:21.079Z,18.20
2022-12-11T14:39:18.937Z,21.40
2022-12-11T14:41:47.590Z,20.40
2022-12-11T14:44:19.183Z,17.20
2022-12-11T14:46:57.094Z,13.50
2022-12-11T14:49:34.947Z,14.10
2022-12-11T14:52:05.477Z,13.80
2022-12-11T14:54:42.356Z,12.20
2022-12-11T14:57:25.832Z,15.00
2022-12-11T14:59:56.561Z,12.60
2022-12-11T15:02:31.161Z,12.80
2022-12-11T15:05:19.103Z,12.20
2022-12-11T15:08:03.962Z,14.30
2022-12-11T15:10:37.206Z,14.80
2022-12-11T15:13:06.630Z,17.00
2022-12-11T15:15:47.626Z,20.40
2022-12-11T15:18:38.581Z,15.80
2022-12-11T15:21:10.055Z,18.00
2022-12-11T15:23:53.509Z,18.30
2022-12-11T15:26:39.736Z,16.40
2022-12-11T15:29:25.686Z,15.50
2022-12-11T15:32:02.947Z,17.00
2022-12-11T15:34:43.015Z,13.60
2022-12-11T15:37:18.487Z,17.50
2022-12-11T15:39:46.774Z,20.00
2022-12-11T15:42:25.061Z,19.40
2022-12-11T15:44:55.857Z,16.90
2022-12-11T15:47:27.006Z,13.70
2022-12-11T15:52:31.395Z,12.70
2022-12-11T15:54:59.453Z,13.90
2022-12-11T15:57:27.716Z,14.30
2022-12-11T15:59:58.708Z,14.60
2022-12-11T16:02:28.081Z,15.20
2022-12-11T16:04:57.522Z,14.80
2022-12-11T16:07:26.864Z,15.00
2022-12-11T16:09:55.068Z,12.90
2022-12-11T16:12:23.348Z,14.30
2022-12-11T16:14:51.546Z,14.40
2022-12-11T16:17:20.088Z,13.20
2022-12-11T16:19:48.240Z,13.50
2022-12-11T16:22:16.631Z,16.90
2022-12-11T16:24:44.740Z,16.60
2022-12-11T16:27:13.102Z,16.10
2022-12-11T16:29:42.003Z,13.40
2022-12-11T16:32:10.551Z,15.40
2022-12-11T16:34:38.916Z,12.60
2022-12-11T16:37:09.149Z,16.00
2022-12-11T16:39:38.725Z,13.50
2022-12-11T16:42:07.137Z,12.20
2022-12-11T16:44:39.530Z,13.30
2022-12-11T16:47:10.886Z,16.00
2022-12-11T16:49:39.530Z,16.20
2022-12-11T16:52:09.309Z,17.10
2022-12-11T16:54:37.860Z,16.70
2022-12-11T16:57:06.198Z,15.10
2022-12-11T16:59:37.437Z,17.10
2022-12-11T17:02:06.638Z,15.70
2022-12-11T17:04:34.896Z,15.60
2022-12-11T17:07:03.562Z,18.40
2022-12-11T17:09:32.536Z,18.80
2022-12-11T17:12:02.126Z,17.30
2022-12-11T17:14:30.284Z,17.60
2022-12-11T17:16:58.573Z,17.10
2022-12-11T17:19:27.191Z,15.20
2022-12-11T17:21:56.138Z,14.70
2022-12-11T17:24:24.393Z,16.30
2022-12-11T17:26:53.251Z,18.20
2022-12-11T17:29:22.093Z,16.30
2022-12-11T17:31:50.354Z,15.90
2022-12-11T17:34:18.693Z,16.10
2022-12-11T17:36:46.819Z,18.30
2022-12-11T17:39:15.117Z,20.00
2022-12-11T17:41:43.512Z,16.50
2022-12-11T17:44:13.188Z,15.80
2022-12-11T17:46:41.668Z,15.80
2022-12-11T17:49:10.194Z,15.50
2022-12-11T17:51:38.287Z,15.70
2022-12-11T17:54:06.554Z,15.20
2022-12-11T17:56:36.238Z,14.50
2022-12-11T17:59:04.981Z,17.30
2022-12-11T18:01:33.397Z,17.80
2022-12-11T18:04:02.420Z,17.70
2022-12-11T18:06:31.579Z,16.60
2022-12-11T18:09:00.173Z,15.20
2022-12-11T18:11:28.575Z,15.40
2022-12-11T18:13:56.914Z,14.80
2022-12-11T18:16:32.422Z,14.70
2022-12-11T18:19:01.297Z,14.50
2022-12-11T18:21:32.978Z,15.20
2022-12-11T18:24:02.092Z,14.10
2022-12-11T18:26:30.229Z,16.80
2022-12-11T18:28:58.457Z,17.40
2022-12-11T18:31:26.616Z,17.00
2022-12-11T18:33:55.212Z,19.50
2022-12-11T18:36:23.466Z,17.20
2022-12-11T18:38:51.584Z,16.30
2022-12-11T18:41:20.327Z,16.50
2022-12-11T18:43:52.222Z,15.40
2022-12-11T18:46:21.647Z,14.40
2022-12-11T18:48:50.600Z,16.10
2022-12-11T18:51:24.879Z,14.90
2022-12-11T18:53:53.770Z,13.60
2022-12-11T18:56:23.346Z,15.50
2022-12-11T18:58:52.320Z,15.80
2022-12-11T19:01:24.151Z,17.00
2022-12-11T19:04:03.267Z,15.80
2022-12-11T19:06:35.573Z,15.90
2022-12-11T19:09:06.394Z,15.20
2022-12-11T19:11:36.200Z,14.20
2022-12-11T19:14:06.062Z,14.40
2022-12-11T19:16:38.926Z,11.60
2022-12-11T19:19:11.696Z,12.40
2022-12-11T19:21:41.132Z,11.70
2022-12-11T19:24:15.001Z,12.80
2022-12-11T19:26:43.879Z,15.40
2022-12-11T19:29:26.815Z,14.30
2022-12-11T19:31:55.999Z,15.50
2022-12-11T19:34:25.162Z,15.60
2022-12-11T19:36:53.790Z,14.30
2022-12-11T19:39:24.376Z,13.50
2022-12-11T19:41:52.531Z,13.70
2022-12-11T19:44:21.032Z,14.00
2022-12-11T19:46:49.424Z,14.80
2022-12-11T19:49:18.395Z,12.60
2022-12-11T19:51:46.693Z,13.60
2022-12-11T19:54:17.009Z,15.70
2022-12-11T19:56:45.473Z,16.70
2022-12-11T19:59:16.769Z,15.60
2022-12-11T20:01:48.210Z,15.30
2022-12-11T20:04:18.187Z,16.90
2022-12-11T20:06:47.199Z,14.40
2022-12-11T20:09:16.050Z,14.60
2022-12-11T20:11:45.527Z,16.40
2022-12-11T20:14:23.069Z,14.00
2022-12-11T20:17:10.505Z,14.60
2022-12-11T20:19:41.276Z,14.20
2022-12-11T20:22:09.626Z,15.30
2022-12-11T20:24:37.940Z,14.90
2022-12-11T20:27:06.304Z,16.50
2022-12-11T20:29:34.502Z,18.60
2022-12-11T20:32:02.778Z,18.50
2022-12-11T20:34:31.502Z,18.70
2022-12-11T20:37:00.458Z,20.90
2022-12-11T20:39:29.277Z,18.90
2022-12-11T20:41:57.619Z,19.00
2022-12-11T20:44:25.929Z,17.80
2022-12-11T20:46:54.324Z,17.20
2022-12-11T20:49:22.744Z,18.60
2022-12-11T20:51:51.992Z,19.40
2022-12-11T20:54:20.116Z,18.60
2022-12-11T20:56:48.638Z,20.80
2022-12-11T20:59:17.697Z,19.50
2022-12-11T21:01:45.849Z,17.30
2022-12-11T21:04:14.264Z,20.60
2022-12-11T21:06:42.980Z,22.40
2022-12-11T21:09:19.442Z,21.50
2022-12-11T21:11:48.434Z,20.30
2022-12-11T21:14:17.933Z,20.20
2022-12-11T21:16:46.751Z,20.90
2022-12-11T21:19:22.395Z,18.20
2022-12-11T21:21:50.967Z,21.70
2022-12-11T21:24:23.295Z,16.70
2022-12-11T21:26:51.406Z,17.70
2022-12-11T21:29:19.688Z,16.50
2022-12-11T21:31:48.315Z,16.50
2022-12-11T21:34:20.654Z,17.50
2022-12-11T21:36:56.527Z,16.90
2022-12-11T21:39:26.377Z,16.10
2022-12-11T21:41:54.716Z,19.10
2022-12-11T21:47:11.231Z,18.60
2022-12-11T21:49:39.470Z,16.70
2022-12-11T21:52:08.711Z,15.80
2022-12-11T21:54:37.011Z,16.00
2022-12-11T21:57:05.247Z,14.20
2022-12-11T21:59:33.389Z,15.30
2022-12-11T22:02:01.819Z,12.30
2022-12-11T22:04:30.151Z,14.30
2022-12-11T22:06:58.279Z,15.80
2022-12-11T22:09:26.621Z,13.60
2022-12-11T22:11:58.435Z,15.50
2022-12-11T22:14:27.277Z,16.80
2022-12-11T22:16:55.692Z,16.20
2022-12-11T22:19:29.081Z,15.70
2022-12-11T22:22:00.734Z,18.30
2022-12-11T22:24:28.845Z,16.60
2022-12-11T22:26:57.157Z,15.00
2022-12-11T22:29:25.529Z,13.70
2022-12-11T22:31:54.571Z,15.00
2022-12-11T22:34:23.142Z,17.10
2022-12-11T22:36:51.734Z,14.90
2022-12-11T22:39:20.060Z,15.80
2022-12-11T22:41:48.367Z,15.50
2022-12-11T22:44:20.150Z,17.00
2022-12-11T22:46:50.499Z,16.50
2022-12-11T22:49:20.487Z,16.30
2022-12-11T22:51:49.183Z,14.40
2022-12-11T22:54:17.386Z,15.60
2022-12-11T22:56:46.310Z,14.20
2022-12-11T22:59:14.778Z,13.40
2022-12-11T23:01:42.951Z,13.80
2022-12-11T23:04:11.931Z,13.50
2022-12-11T23:06:40.040Z,15.80
2022-12-11T23:09:08.157Z,15.90
2022-12-11T23:11:38.435Z,13.00
2022-12-11T23:14:09.031Z,15.00
2022-12-11T23:16:37.491Z,13.40
2022-12-11T23:19:06.045Z,15.80
2022-12-11T23:21:34.486Z,14.20
2022-12-11T23:24:03.915Z,14.90
2022-12-11T23:26:33.019Z,15.70
2022-12-11T23:29:02.121Z,14.60
2022-12-11T23:31:31.292Z,14.30
2022-12-11T23:33:59.771Z,14.00
2022-12-11T23:36:28.673Z,11.20
2022-12-11T23:38:57.178Z,14.00
2022-12-11T23:41:25.595Z,15.30
2022-12-11T23:43:53.756Z,14.30
2022-12-11T23:46:24.518Z,16.50
2022-12-11T23:48:53.879Z,16.20
2022-12-11T23:51:24.391Z,16.00
2022-12-11T23:53:53.174Z,17.70
2022-12-11T23:56:27.790Z,15.40
2022-12-11T23:58:57.283Z,15.50
